Prentice, Illinois
Current Conditions -  °F | °C
As of 8:35 AM on Friday 28 Nov 2014 (Local Time) from KIJX Reporting Station
Clear Clear  
Wind Chill: 20°   Ceiling: Unl
Heat Index: 29°   Visibility: 7mi
Dew Point: 24°   Wind: 10mph
Humidity: 80%   Direction: 160°SSE
Pressure: 30.18"   Gusts: 17mph
Location:  39.9123°N, 90.0575°W
Report Text: KIJX 281435Z AUTO 16009G15KT 7SM CLR M01/M04 A3018 RMK AO2 T10151045
Loading
Personal Weather Stations






























Interactive Weather Map New forecast layout! Learn more

10-Day Weather Forecast

Advertisements
Track Severe Weather on mobile